createdAt,value
2023-01-23T00:00:05.578Z,57.88
2023-01-23T00:02:40.257Z,60.17
2023-01-23T00:05:10.200Z,58.75
2023-01-23T00:07:37.905Z,62.50
2023-01-23T00:10:06.182Z,55.67
2023-01-23T00:12:34.095Z,61.17
2023-01-23T00:15:01.816Z,58.67
2023-01-23T00:17:29.858Z,55.15
2023-01-23T00:19:58.436Z,58.17
2023-01-23T00:22:27.747Z,57.63
2023-01-23T00:24:55.559Z,59.30
2023-01-23T00:27:23.436Z,59.40
2023-01-23T00:29:53.263Z,63.55
2023-01-23T00:32:21.252Z,61.15
2023-01-23T00:34:49.908Z,65.15
2023-01-23T00:37:18.274Z,60.28
2023-01-23T00:39:50.928Z,64.15
2023-01-23T00:42:18.785Z,65.43
2023-01-23T00:44:46.857Z,67.75
2023-01-23T00:47:14.733Z,62.78
2023-01-23T00:49:42.568Z,68.38
2023-01-23T00:52:11.031Z,68.72
2023-01-23T00:54:39.445Z,66.10
2023-01-23T00:57:08.652Z,70.82
2023-01-23T00:59:36.503Z,75.40
2023-01-23T01:02:04.991Z,72.55
2023-01-23T01:04:32.752Z,73.95
2023-01-23T01:07:03.870Z,75.18
2023-01-23T01:09:31.646Z,77.70
2023-01-23T01:11:59.813Z,77.10
2023-01-23T01:14:28.942Z,91.97
2023-01-23T01:16:57.754Z,76.80
2023-01-23T01:19:28.196Z,78.25
2023-01-23T01:21:56.025Z,82.50
2023-01-23T01:24:23.778Z,89.30
2023-01-23T01:26:51.494Z,83.20
2023-01-23T01:29:19.333Z,85.60
2023-01-23T01:31:48.842Z,87.63
2023-01-23T01:34:16.634Z,82.38
2023-01-23T01:36:44.356Z,90.05
2023-01-23T01:39:12.238Z,87.70
2023-01-23T01:41:39.972Z,83.70
2023-01-23T01:44:07.699Z,83.70
2023-01-23T01:46:35.624Z,83.25
2023-01-23T01:49:07.488Z,88.57
2023-01-23T01:51:36.682Z,75.43
2023-01-23T01:54:07.515Z,77.38
2023-01-23T01:56:38.363Z,76.38
2023-01-23T01:59:07.195Z,73.20
2023-01-23T02:01:35.435Z,70.60
2023-01-23T02:04:07.233Z,74.30
2023-01-23T02:06:34.999Z,72.75
2023-01-23T02:09:04.851Z,78.90
2023-01-23T02:11:32.695Z,70.03
2023-01-23T02:14:00.506Z,74.07
2023-01-23T02:16:29.877Z,70.40
2023-01-23T02:18:59.926Z,74.85
2023-01-23T02:21:29.646Z,80.47
2023-01-23T02:24:04.332Z,78.97
2023-01-23T02:26:36.711Z,78.10
2023-01-23T02:29:05.304Z,82.70
2023-01-23T02:40:12.111Z,80.22
2023-01-23T02:42:46.231Z,83.47
2023-01-23T02:45:16.760Z,84.85
2023-01-23T02:47:45.505Z,79.80
2023-01-23T02:50:13.229Z,83.60
2023-01-23T02:52:41.057Z,82.85
2023-01-23T02:55:09.204Z,86.85
2023-01-23T02:57:36.939Z,84.63
2023-01-23T03:00:20.560Z,87.63
2023-01-23T03:02:49.503Z,82.47
2023-01-23T03:05:17.668Z,84.60
2023-01-23T03:07:45.732Z,87.85
2023-01-23T03:10:13.445Z,86.57
2023-01-23T03:12:45.246Z,97.88
2023-01-23T03:15:16.171Z,98.38
2023-01-23T03:17:43.865Z,94.60
2023-01-23T03:20:12.114Z,96.22
2023-01-23T03:22:40.724Z,88.50
2023-01-23T03:25:09.630Z,93.88
2023-01-23T03:27:37.531Z,87.68
2023-01-23T03:30:13.837Z,85.82
2023-01-23T03:32:43.621Z,95.05
2023-01-23T03:35:14.015Z,86.68
2023-01-23T03:37:42.250Z,84.47
2023-01-23T03:40:30.127Z,86.75
2023-01-23T03:42:58.487Z,89.35
2023-01-23T03:45:28.854Z,89.50
2023-01-23T03:47:58.606Z,81.13
2023-01-23T03:50:26.556Z,81.40
2023-01-23T03:52:54.391Z,79.25
2023-01-23T03:55:22.410Z,90.57
2023-01-23T03:57:50.384Z,106.25
2023-01-23T04:00:18.621Z,97.75
2023-01-23T04:02:54.513Z,96.85
2023-01-23T04:05:23.697Z,90.68
2023-01-23T04:07:51.498Z,88.50
2023-01-23T04:10:20.009Z,92.63
2023-01-23T04:12:53.347Z,90.53
2023-01-23T04:15:21.191Z,89.90
2023-01-23T04:17:50.546Z,92.35
2023-01-23T04:20:18.624Z,91.13
2023-01-23T04:22:48.223Z,84.07
2023-01-23T04:25:16.546Z,94.38
2023-01-23T04:27:44.340Z,95.40
2023-01-23T04:30:13.449Z,91.15
2023-01-23T04:32:41.774Z,94.57
2023-01-23T04:35:09.995Z,87.95
2023-01-23T04:37:40.157Z,88.45
2023-01-23T04:40:10.860Z,87.43
2023-01-23T04:42:51.455Z,86.30
2023-01-23T04:45:43.969Z,91.50
2023-01-23T04:48:22.242Z,90.55
2023-01-23T04:50:50.554Z,87.72
2023-01-23T04:53:18.393Z,85.65
2023-01-23T04:55:50.098Z,86.40
2023-01-23T04:58:21.551Z,85.40
2023-01-23T05:00:50.430Z,83.53
2023-01-23T05:03:23.444Z,79.63
2023-01-23T05:05:52.134Z,79.22
2023-01-23T05:08:19.923Z,84.63
2023-01-23T05:10:57.148Z,83.82
2023-01-23T05:13:25.032Z,74.80
2023-01-23T05:15:53.931Z,88.15
2023-01-23T05:18:22.424Z,79.57
2023-01-23T05:20:50.307Z,84.75
2023-01-23T05:23:18.316Z,91.47
2023-01-23T05:25:50.537Z,80.18
2023-01-23T05:28:20.093Z,79.00
2023-01-23T05:30:52.603Z,83.65
2023-01-23T05:33:26.495Z,81.38
2023-01-23T05:35:54.779Z,72.07
2023-01-23T05:38:22.843Z,76.22
2023-01-23T05:40:51.691Z,73.15
2023-01-23T05:43:39.494Z,68.65
2023-01-23T05:46:22.286Z,76.45
2023-01-23T05:48:53.515Z,79.70
2023-01-23T05:51:23.357Z,84.20
2023-01-23T05:53:51.995Z,77.88
2023-01-23T05:56:20.218Z,85.78
2023-01-23T05:59:21.294Z,88.93
2023-01-23T06:01:59.273Z,88.93
2023-01-23T06:04:39.103Z,89.97
2023-01-23T06:07:27.235Z,99.13
2023-01-23T06:09:58.361Z,92.18
2023-01-23T06:12:26.250Z,98.93
2023-01-23T06:14:55.616Z,98.93
2023-01-23T06:17:23.898Z,98.18
2023-01-23T06:19:52.419Z,92.25
2023-01-23T06:22:20.289Z,98.65
2023-01-23T06:25:03.068Z,100.93
2023-01-23T06:27:31.060Z,102.32
2023-01-23T06:30:03.207Z,98.20
2023-01-23T06:32:32.790Z,113.80
2023-01-23T06:35:00.820Z,101.20
2023-01-23T06:37:29.090Z,107.22
2023-01-23T06:39:56.843Z,100.35
2023-01-23T06:42:24.729Z,109.78
2023-01-23T06:44:53.506Z,106.97
2023-01-23T06:47:24.719Z,107.75
2023-01-23T06:50:02.090Z,106.88
2023-01-23T06:52:33.469Z,114.43
2023-01-23T06:55:01.271Z,114.88
2023-01-23T06:57:29.041Z,109.82
2023-01-23T06:59:58.124Z,112.47
2023-01-23T07:02:27.735Z,111.38
2023-01-23T07:04:56.199Z,113.88
2023-01-23T07:07:23.996Z,127.70
2023-01-23T07:09:52.569Z,120.47
2023-01-23T07:12:24.261Z,116.28
2023-01-23T07:14:53.084Z,106.50
2023-01-23T07:17:27.499Z,106.90
2023-01-23T07:19:55.309Z,102.20
2023-01-23T07:22:23.616Z,97.78
2023-01-23T07:24:52.036Z,104.30
2023-01-23T07:27:19.944Z,106.05
2023-01-23T07:29:47.720Z,106.28
2023-01-23T07:32:15.480Z,96.95
2023-01-23T07:34:44.600Z,97.88
2023-01-23T07:37:12.450Z,102.78
2023-01-23T07:39:40.189Z,93.10
2023-01-23T07:42:08.089Z,91.07
2023-01-23T07:44:36.206Z,97.70
2023-01-23T07:47:04.267Z,93.93
2023-01-23T07:49:32.136Z,91.57
2023-01-23T07:52:01.271Z,90.55
2023-01-23T07:54:29.318Z,90.32
2023-01-23T07:56:57.142Z,85.20
2023-01-23T07:59:24.986Z,94.93
2023-01-23T08:01:52.859Z,95.47
2023-01-23T08:04:20.663Z,92.38
2023-01-23T08:06:48.392Z,84.55
2023-01-23T08:09:17.753Z,89.65
2023-01-23T08:11:45.558Z,77.35
2023-01-23T08:14:14.132Z,80.28
2023-01-23T08:16:41.932Z,87.38
2023-01-23T08:19:09.786Z,87.40
2023-01-23T08:21:37.888Z,81.15
2023-01-23T08:24:06.082Z,76.25
2023-01-23T08:26:35.470Z,72.93
2023-01-23T08:29:03.791Z,71.47
2023-01-23T08:31:32.051Z,65.13
2023-01-23T08:34:00.053Z,67.18
2023-01-23T08:36:28.797Z,68.28
2023-01-23T08:38:56.780Z,67.93
2023-01-23T08:41:24.623Z,69.68
2023-01-23T08:43:53.727Z,67.57
2023-01-23T08:46:22.107Z,62.80
2023-01-23T08:48:50.102Z,59.45
2023-01-23T08:51:17.895Z,61.38
2023-01-23T08:53:45.899Z,61.80
2023-01-23T08:56:16.888Z,60.80
2023-01-23T08:58:45.213Z,62.88
2023-01-23T09:01:14.857Z,63.53
2023-01-23T09:03:42.763Z,64.85
2023-01-23T09:06:11.272Z,59.80
2023-01-23T09:08:39.064Z,61.67
2023-01-23T09:11:10.496Z,57.80
2023-01-23T09:13:38.357Z,53.33
2023-01-23T09:16:08.221Z,54.67
2023-01-23T09:18:37.699Z,57.63
2023-01-23T09:21:08.849Z,55.72
2023-01-23T09:23:37.005Z,52.10
2023-01-23T09:26:05.693Z,49.80
2023-01-23T09:28:33.689Z,50.40
2023-01-23T09:31:05.151Z,45.33
2023-01-23T09:33:33.025Z,45.83
2023-01-23T09:36:02.606Z,47.28
2023-01-23T09:38:30.839Z,47.20
2023-01-23T09:40:59.755Z,48.33
2023-01-23T09:43:34.173Z,46.13
2023-01-23T09:46:07.412Z,45.83
2023-01-23T09:48:40.122Z,43.83
2023-01-23T09:51:13.878Z,48.22
2023-01-23T09:53:42.818Z,45.20
2023-01-23T09:56:15.551Z,50.78
2023-01-23T09:58:48.673Z,49.20
2023-01-23T10:01:16.481Z,44.63
2023-01-23T10:03:44.840Z,46.92
2023-01-23T10:06:20.553Z,54.67
2023-01-23T10:08:55.257Z,63.35
2023-01-23T10:11:26.124Z,53.05
2023-01-23T10:14:08.161Z,58.97
2023-01-23T10:16:50.682Z,42.15
2023-01-23T10:19:24.494Z,45.88
2023-01-23T10:21:56.694Z,47.15
2023-01-23T10:24:40.079Z,45.80
2023-01-23T10:27:16.522Z,47.47
2023-01-23T10:29:46.220Z,40.28
2023-01-23T10:32:19.445Z,46.58
2023-01-23T10:34:49.982Z,48.90
2023-01-23T10:37:21.919Z,52.55
2023-01-23T10:39:51.961Z,63.80
2023-01-23T10:42:22.914Z,50.55
2023-01-23T10:44:50.717Z,55.67
2023-01-23T10:47:21.218Z,49.20
2023-01-23T10:49:51.116Z,48.17
2023-01-23T10:52:34.440Z,42.83
2023-01-23T10:55:02.573Z,42.47
2023-01-23T10:57:31.352Z,46.70
2023-01-23T11:00:03.946Z,53.67
2023-01-23T11:02:33.352Z,48.90
2023-01-23T11:05:02.022Z,47.53
2023-01-23T11:07:30.754Z,51.15
2023-01-23T11:10:01.798Z,46.63
2023-01-23T11:12:31.894Z,47.08
2023-01-23T11:15:14.080Z,47.42
2023-01-23T11:17:43.004Z,49.35
2023-01-23T11:20:24.429Z,49.05
2023-01-23T11:23:01.380Z,46.40
2023-01-23T11:25:31.697Z,47.75
2023-01-23T11:28:00.234Z,48.17
2023-01-23T11:30:34.830Z,45.92
2023-01-23T11:33:05.294Z,45.05
2023-01-23T11:35:45.512Z,43.20
2023-01-23T11:38:17.961Z,47.90
2023-01-23T11:40:49.081Z,49.85
2023-01-23T11:43:17.198Z,49.20
2023-01-23T11:45:50.121Z,46.88
2023-01-23T11:48:24.506Z,45.70
2023-01-23T11:50:57.177Z,45.95
2023-01-23T11:53:41.076Z,50.42
2023-01-23T11:56:18.991Z,49.90
2023-01-23T11:59:04.529Z,47.45
2023-01-23T12:01:34.928Z,50.40
2023-01-23T12:04:23.835Z,53.20
2023-01-23T12:06:58.543Z,47.13
2023-01-23T12:09:31.586Z,51.05
2023-01-23T12:12:05.977Z,51.47
2023-01-23T12:14:38.780Z,50.03
2023-01-23T12:17:12.313Z,47.20
2023-01-23T12:20:00.623Z,52.67
2023-01-23T12:22:31.016Z,51.78
2023-01-23T12:25:05.958Z,50.17
2023-01-23T12:27:41.037Z,49.55
2023-01-23T12:30:21.032Z,55.47
2023-01-23T12:32:54.300Z,48.80
2023-01-23T12:35:30.141Z,48.65
2023-01-23T12:38:04.132Z,49.97
2023-01-23T12:40:34.792Z,54.28
2023-01-23T12:43:06.807Z,48.38
2023-01-23T12:45:34.934Z,49.25
2023-01-23T12:48:06.219Z,47.97
2023-01-23T12:50:37.017Z,45.10
2023-01-23T12:53:06.741Z,47.40
2023-01-23T12:55:38.027Z,48.58
2023-01-23T12:58:09.794Z,51.47
2023-01-23T13:00:45.887Z,48.13
2023-01-23T13:03:22.756Z,54.60
2023-01-23T13:05:57.038Z,50.63
2023-01-23T13:08:29.012Z,48.78
2023-01-23T13:11:21.015Z,53.55
2023-01-23T13:13:51.166Z,53.88
2023-01-23T13:16:21.032Z,53.20
2023-01-23T13:19:12.691Z,46.92
2023-01-23T13:21:58.173Z,49.55
2023-01-23T13:24:55.861Z,51.95
2023-01-23T13:27:41.028Z,54.30
2023-01-23T13:30:31.628Z,50.78
2023-01-23T13:33:03.811Z,58.47
2023-01-23T13:35:53.027Z,56.90
2023-01-23T13:38:32.104Z,49.55
2023-01-23T13:41:20.892Z,52.03
2023-01-23T13:43:53.029Z,51.72
2023-01-23T13:46:25.766Z,52.38
2023-01-23T14:21:41.177Z,52.55
2023-01-23T14:24:21.257Z,52.50
2023-01-23T14:26:49.927Z,52.28
2023-01-23T14:29:21.586Z,50.72
2023-01-23T14:31:51.243Z,53.80
2023-01-23T14:34:19.876Z,57.67
2023-01-23T14:36:51.555Z,53.90
2023-01-23T14:39:21.421Z,57.70
2023-01-23T14:41:49.892Z,54.42
2023-01-23T14:44:21.111Z,59.03
2023-01-23T14:46:51.888Z,56.60
2023-01-23T14:49:23.518Z,57.65
2023-01-23T14:51:57.153Z,62.97
2023-01-23T14:54:29.597Z,49.92
2023-01-23T14:57:04.568Z,55.85
2023-01-23T14:59:34.229Z,59.78
2023-01-23T15:02:07.705Z,57.85
2023-01-23T15:04:44.252Z,66.30
2023-01-23T15:07:15.881Z,67.07
2023-01-23T15:09:46.533Z,65.35
2023-01-23T15:12:20.743Z,64.78
2023-01-23T15:14:53.399Z,61.97
2023-01-23T15:17:21.740Z,57.95
2023-01-23T15:19:51.136Z,60.40
2023-01-23T15:22:21.987Z,66.40
2023-01-23T15:24:49.969Z,64.72
2023-01-23T15:27:24.861Z,58.90
2023-01-23T15:29:52.719Z,60.83
2023-01-23T15:32:26.884Z,63.30
2023-01-23T15:34:55.732Z,65.93
2023-01-23T15:37:26.241Z,61.47
2023-01-23T15:39:55.605Z,61.35
2023-01-23T15:42:27.575Z,68.30
2023-01-23T15:44:55.793Z,61.00
2023-01-23T15:47:23.856Z,63.78
2023-01-23T15:49:51.575Z,65.97
2023-01-23T15:52:21.493Z,70.13
2023-01-23T15:54:51.678Z,70.25
2023-01-23T15:57:19.694Z,68.88
2023-01-23T15:59:48.437Z,67.13
2023-01-23T16:02:29.543Z,75.20
2023-01-23T16:04:59.147Z,70.95
2023-01-23T16:07:28.408Z,65.55
2023-01-23T16:09:58.240Z,65.00
2023-01-23T16:12:28.255Z,72.47
2023-01-23T16:14:56.076Z,73.78
2023-01-23T16:17:24.007Z,64.28
2023-01-23T16:19:51.735Z,69.88
2023-01-23T16:22:23.662Z,67.35
2023-01-23T16:24:51.566Z,65.28
2023-01-23T16:27:27.378Z,70.78
2023-01-23T16:29:56.007Z,66.85
2023-01-23T16:32:25.127Z,67.25
2023-01-23T16:34:54.379Z,67.32
2023-01-23T16:37:23.447Z,64.97
2023-01-23T16:39:51.335Z,63.08
2023-01-23T16:42:22.174Z,67.05
2023-01-23T16:44:50.231Z,78.25
2023-01-23T16:47:18.428Z,72.68
2023-01-23T16:49:52.676Z,65.15
2023-01-23T16:52:22.306Z,62.42
2023-01-23T16:54:52.626Z,65.10
2023-01-23T16:57:22.157Z,70.28
2023-01-23T16:59:50.388Z,67.60
2023-01-23T17:02:21.128Z,89.65
2023-01-23T17:04:49.322Z,70.90
2023-01-23T17:07:17.625Z,66.75
2023-01-23T17:09:45.418Z,63.17
2023-01-23T17:12:15.328Z,63.60
2023-01-23T17:14:45.933Z,67.72
2023-01-23T17:17:16.342Z,70.30
2023-01-23T17:19:44.925Z,70.40
2023-01-23T17:22:19.306Z,67.35
2023-01-23T17:27:14.899Z,67.13
2023-01-23T17:29:44.330Z,69.57
2023-01-23T17:32:19.964Z,61.95
2023-01-23T17:34:50.215Z,65.35
2023-01-23T17:37:22.237Z,66.22
2023-01-23T17:39:50.030Z,62.13
2023-01-23T17:42:18.090Z,71.72
2023-01-23T17:44:47.156Z,67.88
2023-01-23T17:47:15.557Z,66.78
2023-01-23T17:49:46.784Z,60.80
2023-01-23T17:52:14.969Z,69.18
2023-01-23T17:54:43.000Z,66.43
2023-01-23T17:57:10.745Z,71.53
2023-01-23T17:59:38.476Z,70.00
2023-01-23T18:02:19.044Z,74.93
2023-01-23T18:04:46.809Z,72.45
2023-01-23T18:07:14.615Z,75.28
2023-01-23T18:09:42.327Z,69.47
2023-01-23T18:12:12.110Z,72.72
2023-01-23T18:14:43.660Z,72.07
2023-01-23T18:17:17.405Z,71.95
2023-01-23T18:19:45.571Z,65.70
2023-01-23T18:22:13.645Z,76.70
2023-01-23T18:24:42.960Z,69.88
2023-01-23T18:27:17.231Z,73.93
2023-01-23T18:29:51.319Z,68.20
2023-01-23T18:32:31.355Z,67.13
2023-01-23T18:35:04.245Z,72.68
2023-01-23T18:37:36.548Z,73.05
2023-01-23T18:40:07.301Z,73.43
2023-01-23T18:42:38.705Z,73.97
2023-01-23T18:45:11.042Z,66.28
2023-01-23T18:47:42.361Z,70.45
2023-01-23T18:50:17.454Z,75.20
2023-01-23T18:52:51.011Z,74.10
2023-01-23T18:55:25.402Z,72.82
2023-01-23T18:57:59.609Z,82.25
2023-01-23T19:00:30.393Z,84.35
2023-01-23T19:03:02.641Z,81.63
2023-01-23T19:05:32.707Z,82.03
2023-01-23T19:08:01.384Z,81.15
2023-01-23T19:10:32.568Z,83.85
2023-01-23T19:13:07.719Z,59.40
2023-01-23T19:15:40.421Z,85.65
2023-01-23T19:18:16.249Z,83.70
2023-01-23T19:20:48.387Z,91.63
2023-01-23T19:23:27.702Z,92.57
2023-01-23T19:25:56.077Z,91.78
2023-01-23T19:28:24.443Z,101.32
2023-01-23T19:30:52.584Z,97.93
2023-01-23T19:33:22.414Z,109.90
2023-01-23T19:35:51.391Z,102.90
2023-01-23T19:38:19.281Z,98.22
2023-01-23T19:40:49.241Z,101.32
2023-01-23T19:43:18.020Z,89.22
2023-01-23T19:45:46.441Z,104.53
2023-01-23T19:48:14.714Z,98.93
2023-01-23T19:50:44.143Z,101.40
2023-01-23T19:53:13.503Z,107.30
2023-01-23T19:55:42.119Z,102.68
2023-01-23T19:58:10.578Z,98.00
2023-01-23T20:00:38.418Z,96.90
2023-01-23T20:03:06.586Z,105.07
2023-01-23T20:05:34.430Z,98.95
2023-01-23T20:08:03.875Z,98.30
2023-01-23T20:10:31.816Z,97.97
2023-01-23T20:12:59.890Z,106.18
2023-01-23T20:15:27.913Z,106.70
2023-01-23T20:17:55.567Z,101.25
2023-01-23T20:20:23.610Z,106.47
2023-01-23T20:22:51.768Z,106.25
2023-01-23T20:25:21.356Z,115.03
2023-01-23T20:27:49.530Z,100.93
2023-01-23T20:30:18.286Z,112.07
2023-01-23T20:32:46.289Z,108.05
2023-01-23T20:35:14.349Z,101.22
2023-01-23T20:37:42.330Z,102.95
2023-01-23T20:40:11.669Z,98.63
2023-01-23T20:42:41.251Z,92.43
2023-01-23T20:45:09.788Z,100.15
2023-01-23T20:47:37.986Z,103.18
2023-01-23T20:50:06.427Z,97.70
2023-01-23T20:52:51.633Z,102.05
2023-01-23T20:55:19.359Z,90.97
2023-01-23T20:58:06.225Z,101.10
2023-01-23T21:00:34.333Z,94.07
2023-01-23T21:03:02.199Z,97.22
2023-01-23T21:05:30.037Z,96.57
2023-01-23T21:07:58.050Z,99.93
2023-01-23T21:10:25.806Z,102.47
2023-01-23T21:12:55.379Z,104.15
2023-01-23T21:15:23.606Z,103.13
2023-01-23T21:17:51.656Z,102.90
2023-01-23T21:20:19.447Z,112.60
2023-01-23T21:22:48.084Z,115.10
2023-01-23T21:25:16.034Z,108.72
2023-01-23T21:27:44.064Z,106.38
2023-01-23T21:30:14.095Z,101.40
2023-01-23T21:32:42.138Z,101.63
2023-01-23T21:35:10.333Z,105.32
2023-01-23T21:37:38.187Z,101.82
2023-01-23T21:40:06.708Z,104.65
2023-01-23T21:42:34.443Z,98.32
2023-01-23T21:45:02.548Z,103.82
2023-01-23T21:47:31.689Z,96.20
2023-01-23T21:49:59.425Z,94.00
2023-01-23T21:52:27.149Z,102.85
2023-01-23T21:54:56.124Z,107.75
2023-01-23T21:57:24.573Z,101.75
2023-01-23T22:00:06.239Z,97.43
2023-01-23T22:02:41.695Z,102.13
2023-01-23T22:05:09.687Z,98.50
2023-01-23T22:07:37.527Z,112.50
2023-01-23T22:10:05.687Z,99.38
2023-01-23T22:12:33.974Z,99.20
2023-01-23T22:15:01.761Z,91.25
2023-01-23T22:17:29.671Z,93.38
2023-01-23T22:19:58.770Z,97.25
2023-01-23T22:22:26.901Z,96.53
2023-01-23T22:24:54.669Z,100.78
2023-01-23T22:27:23.330Z,100.45
2023-01-23T22:29:51.106Z,97.80
2023-01-23T22:32:19.455Z,103.80
2023-01-23T22:34:47.417Z,101.18
2023-01-23T22:37:16.560Z,95.22
2023-01-23T22:39:44.975Z,93.15
2023-01-23T22:42:12.797Z,103.03
2023-01-23T22:44:40.641Z,106.43
2023-01-23T22:47:08.794Z,105.47
2023-01-23T22:49:36.582Z,102.65
2023-01-23T22:52:04.432Z,107.95
2023-01-23T22:54:33.568Z,111.72
2023-01-23T22:57:01.452Z,111.43
2023-01-23T22:59:29.334Z,126.97
2023-01-23T23:01:57.606Z,102.57
2023-01-23T23:04:25.573Z,99.85
2023-01-23T23:06:53.333Z,96.90
2023-01-23T23:09:21.119Z,107.97
2023-01-23T23:11:51.761Z,105.97
2023-01-23T23:14:19.625Z,102.32
2023-01-23T23:16:47.383Z,101.60
2023-01-23T23:19:15.312Z,90.78
2023-01-23T23:21:43.099Z,91.88
2023-01-23T23:24:13.191Z,99.45
2023-01-23T23:26:41.025Z,87.57
2023-01-23T23:29:10.453Z,85.55
2023-01-23T23:31:38.344Z,89.05
2023-01-23T23:34:06.189Z,88.32
2023-01-23T23:36:33.995Z,93.90
2023-01-23T23:39:01.737Z,93.50
2023-01-23T23:41:29.676Z,92.53
2023-01-23T23:43:57.485Z,92.32
2023-01-23T23:46:26.731Z,90.90
2023-01-23T23:48:54.533Z,92.57
2023-01-23T23:51:23.726Z,85.00
2023-01-23T23:53:51.497Z,85.20
2023-01-23T23:56:20.807Z,91.57
2023-01-23T23:58:48.933Z,86.85
